No se requiere un especial cuidado respecto a la situación meteorológica.   -   No hay avisos

Informes METAR

 

LEZL - Sevilla, Spain
Distancia de la estación: ENE 8km
Actualización: 31/03/2015 22:30
Despejado
Despejado
 Viento de variable
Viento: variable 4 km/h
Temperatura: 21°C
Rocío: 15°C
Humedad: 69%
Barómetro: 1023 hPa
Resumen: Despejado
Visibilidad: mayor de 10 km
2015/03/31 20:30 LEZL 312030Z VRB02KT CAVOK 21/15 Q1023 NOSIG
LEMO - Morón, Spain
Distancia de la estación: SE 43km
Actualización: 31/03/2015 22:00
Despejado
Despejado
 Viento de O
Viento: O 7 km/h
Temperatura: 22°C
Rocío: 14°C
Humedad: 61%
Barómetro: 1024 hPa
Resumen: Despejado
Visibilidad: mayor de 10 km
2015/03/31 20:00 LEMO 312000Z 27004KT CAVOK 22/14 Q1024 NOSIG
LEJR - Jeréz, Spain
Distancia de la estación: S 71km
Actualización: 31/03/2015 22:30
Despejado
Despejado
 Viento de variable
Viento: variable 2 km/h
Temperatura: 19°C
Rocío: 15°C
Humedad: 78%
Barómetro: 1024 hPa
Resumen: Despejado
Visibilidad: mayor de 10 km
2015/03/31 20:30 LEJR 312030Z VRB01KT CAVOK 19/15 Q1024
 
LERT - Rota, Spain
Distancia de la estación: SSO 89km
Actualización: 31/03/2015 22:00
Despejado
Despejado
 Viento de variable
Viento: variable 4 km/h
Temperatura: 18°C
Rocío: 15°C
Humedad: 83%
Barómetro: 1023 hPa
Resumen: Despejado
Visibilidad: mayor de 10 km
2015/03/31 20:00 LERT 312000Z VRB02KT CAVOK 18/15 Q1023 NOSIG
LEMG - Málaga, Spain
Distancia de la estación: ESE 157km
Actualización: 31/03/2015 22:00
Despejado
Despejado
 Viento de NO
Viento: NO 2 km/h
Temperatura: 17°C
Rocío: 13°C
Humedad: 77%
Barómetro: 1023 hPa
Resumen: Despejado
Visibilidad: mayor de 10 km
2015/03/31 20:00 LEMG 312000Z 31001KT CAVOK 17/13 Q1023 NOSIG
LEBA - Córdoba, Spain
Distancia de la estación: ENE 115km
Actualización: 31/03/2015 21:00
NOT Current
Despejado
Despejado
 Viento de calm
Viento: Calma
Temperatura: 26°C
Rocío: 11°C
Humedad: 39%
Barómetro: 1022 hPa
Resumen: Despejado
Visibilidad: mayor de 10 km
2015/03/31 19:00 LEBA 311900Z 00000KT CAVOK 26/11 Q1022
 
LEGR - Granada, Spain
Distancia de la estación: E 198km
Actualización: 31/03/2015 22:00
Despejado
Despejado
 Viento de variable
Viento: variable 2 km/h
Temperatura: 23°C
Rocío: 5°C
Humedad: 31%
Barómetro: 1025 hPa
Resumen: Despejado
Visibilidad: mayor de 10 km
2015/03/31 20:00 LEGR 312000Z VRB01KT CAVOK 23/05 Q1025
LEAM - Almería, Spain
Distancia de la estación: E 326km
Actualización: 31/03/2015 22:00
Despejado
Despejado
 Viento de calm
Viento: Calma
Temperatura: 19°C
Rocío: 16°C
Humedad: 83%
Barómetro: 1022 hPa
Resumen: Despejado
Visibilidad: mayor de 10 km
2015/03/31 20:00 LEAM 312000Z 00000KT CAVOK 19/16 Q1022
LEMD - Madrid/Barajas, Spain
Distancia de la estación: NNE 402km
Actualización: 31/03/2015 22:00
Despejado
Despejado
 Viento de NNO
Viento: NNO 19 km/h
Temperatura: 18°C
Rocío: 2°C
Humedad: 34%
Barómetro: 1027 hPa
Resumen: Despejado
Visibilidad: mayor de 10 km
2015/03/31 20:00 LEMD 312000Z 33010KT CAVOK 18/02 Q1027 NOSIG
 
LEVD - Valladolid, Spain
Distancia de la estación: N 492km
Actualización: 31/03/2015 21:30
Despejado
Despejado
 Viento de N
Viento: N 15 km/h
Temperatura: 13°C
Rocío: 2°C
Humedad: 47%
Barómetro: 1028 hPa
Resumen: Despejado
Visibilidad: mayor de 10 km
2015/03/31 19:30 LEVD 311930Z 01008KT CAVOK 13/02 Q1028
LEBL - Barcelona, Spain
Distancia de la estación: NE 816km
Actualización: 31/03/2015 22:00
Parcialmente nuboso
Parcialmente nuboso
 Viento de NE
Viento: NE 11 km/h
Temperatura: 15°C
Rocío: 13°C
Humedad: 88%
Barómetro: 1023 hPa
Nubes: Parcialmente nuboso
Visibilidad: 10 km
Detalles de las nubes: Poco nuboso 213 m
Parcialmente nuboso 457 m
2015/03/31 20:00 LEBL 312000Z 05006KT 9999 FEW007 SCT015 15/13 Q1023 NOSIG
LEVC - Valencia, Spain
Distancia de la estación: ENE 535km
Actualización: 31/03/2015 22:00
Despejado
Despejado
 Viento de NNO
Viento: NNO 11 km/h
Temperatura: 21°C
Rocío: 10°C
Humedad: 50%
Barómetro: 1022 hPa
Resumen: Despejado
Visibilidad: mayor de 10 km
2015/03/31 20:00 LEVC 312000Z 33006KT CAVOK 21/10 Q1022 NOSIG